| time (UTC) | temp C | wind direction | speed KPH | gust KPH | rain 1hr cm | rain 24hr cm | rain mn cm | humidity % | barometer mb |
| 20260507080021 | 13 | 247 | 1.6 | 6.4 | 0.00 | 0.00 | 0.00 | 84 | 1022.5 |
| 20260507075038 | 13 | 238 | 4.8 | 9.7 | 0.00 | 0.00 | 0.00 | 84 | 1022.5 |
| 20260507074023 | 13 | 250 | 3.2 | 8.0 | 0.00 | 0.00 | 0.00 | 84 | 1022.6 |
| 20260507073021 | 13 | 201 | 3.2 | 6.4 | 0.00 | 0.00 | 0.00 | 84 | 1022.5 |
| 20260507072017 | 13 | 223 | 3.2 | 8.0 | 0.00 | 0.00 | 0.00 | 84 | 1022.6 |
| 20260507071021 | 13 | 251 | 3.2 | 8.0 | 0.00 | 0.00 | 0.00 | 84 | 1022.6 |
| 20260507070018 | 13 | 206 | 3.2 | 6.4 | 0.00 | 0.00 | 0.00 | 84 | 1022.6 |
| 20260507065021 | 13 | 199 | 1.6 | 4.8 | 0.00 | 0.00 | 0.00 | 84 | 1022.7 |
| 20260507064018 | 13 | 222 | 3.2 | 6.4 | 0.00 | 0.00 | 0.00 | 83 | 1022.6 |
| 20260507063019 | 13 | 249 | 1.6 | 6.4 | 0.00 | 0.00 | 0.00 | 83 | 1022.6 |
| 20260507062015 | 13 | 230 | 3.2 | 11.3 | 0.00 | 0.00 | 0.00 | 83 | 1022.5 |
| 20260507061018 | 13 | 252 | 1.6 | 4.8 | 0.00 | 0.00 | 0.00 | 82 | 1022.6 |
| 20260507060019 | 13 | 249 | 3.2 | 9.7 | 0.00 | 0.00 | 0.00 | 82 | 1022.4 |
| 20260507055016 | 13 | 238 | 3.2 | 11.3 | 0.00 | 0.00 | 0.00 | 82 | 1022.5 |
| 20260507054037 | 13 | 211 | 1.6 | 4.8 | 0.00 | 0.00 | 0.00 | 82 | 1022.5 |
| 20260507053020 | 13 | 194 | 1.6 | 6.4 | 0.00 | 0.00 | 0.00 | 82 | 1022.5 |
| 20260507052017 | 13 | 170 | 1.6 | 4.8 | 0.00 | 0.00 | 0.00 | 81 | 1022.6 |
| 20260507051038 | 13 | 195 | 0.0 | 3.2 | 0.00 | 0.00 | 0.00 | 81 | 1022.5 |
| 20260507050017 | 13 | 180 | 1.6 | 4.8 | 0.00 | 0.00 | 0.00 | 81 | 1022.4 |
| 20260507045040 | 13 | 343 | 0.0 | 3.2 | 0.00 | 0.00 | 0.00 | 80 | 1022.4 |
| 20260507044017 | 14 | 300 | 1.6 | 3.2 | 0.00 | 0.00 | 0.00 | 80 | 1022.3 |
| 20260507043024 | 14 | 227 | 0.0 | 4.8 | 0.00 | 0.00 | 0.00 | 80 | 1022.3 |
| 20260507042041 | 14 | 215 | 1.6 | 4.8 | 0.00 | 0.00 | 0.00 | 80 | 1022.3 |
| 20260507041016 | 14 | 242 | 1.6 | 6.4 | 0.00 | 0.00 | 0.00 | 79 | 1022.1 |
| 20260507040019 | 14 | 248 | 3.2 | 6.4 | 0.00 | 0.00 | 0.00 | 79 | 1022.0 |
| 20260507035020 | 14 | 268 | 3.2 | 8.0 | 0.00 | 0.00 | 0.00 | 79 | 1021.8 |
| 20260507034019 | 14 | 285 | 3.2 | 9.7 | 0.00 | 0.00 | 0.00 | 79 | 1021.9 |
| 20260507033018 | 14 | 285 | 3.2 | 8.0 | 0.00 | 0.00 | 0.00 | 79 | 1021.8 |
| 20260507032021 | 14 | 315 | 4.8 | 9.7 | 0.00 | 0.00 | 0.00 | 78 | 1021.8 |
| 20260507031016 | 15 | 279 | 4.8 | 9.7 | 0.00 | 0.00 | 0.00 | 78 | 1021.6 |
| 20260507030022 | 15 | 294 | 6.4 | 14.5 | 0.00 | 0.00 | 0.00 | 76 | 1021.6 |
| 20260507025019 | 15 | 295 | 4.8 | 17.7 | 0.00 | 0.00 | 0.00 | 75 | 1021.3 |
| 20260507024020 | 16 | 302 | 4.8 | 12.9 | 0.00 | 0.00 | 0.00 | 72 | 1021.3 |
| 20260507023025 | 16 | 304 | 4.8 | 12.9 | 0.00 | 0.00 | 0.00 | 71 | 1021.1 |
| 20260507022024 | 16 | 272 | 4.8 | 11.3 | 0.00 | 0.00 | 0.00 | 70 | 1021.2 |
| 20260507021015 | 17 | 265 | 4.8 | 11.3 | 0.00 | 0.00 | 0.00 | 68 | 1021.3 |
| 20260507020019 | 17 | 274 | 4.8 | 11.3 | 0.00 | 0.00 | 0.00 | 67 | 1021.3 |
| 20260507015018 | 17 | 217 | 3.2 | 11.3 | 0.00 | 0.00 | 0.00 | 66 | 1021.3 |
| 20260507014018 | 18 | 275 | 9.7 | 11.3 | 0.00 | 0.00 | 0.00 | 65 | 1021.2 |
| 20260507013025 | 18 | 0.0 | 0.0 | 0.00 | 0.00 | 0.00 | 65 | 1021.2 | |
| 20260507012019 | 18 | 329 | 20.9 | 24.1 | 0.00 | 0.00 | 0.00 | 66 | 1021.1 |
| 20260507011042 | 18 | 0.0 | 0.0 | 0.00 | 0.00 | 0.00 | 65 | 1021.1 | |
| 20260507010025 | 18 | 0.0 | 0.0 | 0.00 | 0.00 | 0.00 | 64 | 1021.1 | |
| 20260507005025 | 18 | 0.0 | 0.0 | 0.00 | 0.00 | 0.00 | 64 | 1021.0 | |
| 20260507004016 | 18 | 0.0 | 0.0 | 0.00 | 0.00 | 0.00 | 64 | 1021.0 | |
| 20260507003024 | 18 | 321 | 9.7 | 22.5 | 0.00 | 0.00 | 0.00 | 64 | 1020.8 |
| 20260507002017 | 19 | 316 | 9.7 | 20.9 | 0.00 | 0.00 | 0.00 | 63 | 1021.1 |
| 20260507001020 | -17 | 318 | 6.4 | 12.9 | 0.00 | 0.00 | 0.00 | 1021.1 | |
| 20260507000015 | 19 | 317 | 9.7 | 25.7 | 0.00 | 0.00 | 0.00 | 63 | 1021.0 |
| 20260506235018 | 19 | 309 | 8.0 | 17.7 | 0.00 | 0.00 | 0.00 | 62 | 1021.1 |
| 20260506234022 | 19 | 317 | 11.3 | 19.3 | 0.00 | 0.00 | 0.00 | 63 | 1021.0 |
| 20260506233016 | 19 | 315 | 9.7 | 22.5 | 0.00 | 0.00 | 0.00 | 62 | 1021.1 |
| 20260506232015 | 19 | 319 | 9.7 | 22.5 | 0.00 | 0.00 | 0.00 | 63 | 1021.2 |
| 20260506231018 | 19 | 311 | 9.7 | 22.5 | 0.00 | 0.00 | 0.00 | 63 | 1021.2 |
| 20260506230025 | 19 | 319 | 9.7 | 20.9 | 0.00 | 0.00 | 0.00 | 63 | 1021.3 |
| 20260506225020 | 20 | 293 | 8.0 | 20.9 | 0.00 | 0.00 | 0.00 | 62 | 1021.5 |
| 20260506224023 | 20 | 303 | 8.0 | 19.3 | 0.00 | 0.00 | 0.00 | 61 | 1021.5 |
| 20260506223020 | 20 | 311 | 9.7 | 19.3 | 0.00 | 0.00 | 0.00 | 60 | 1021.5 |
| 20260506222041 | 20 | 305 | 9.7 | 19.3 | 0.00 | 0.00 | 0.00 | 59 | 1021.7 |
| 20260506221018 | 21 | 310 | 9.7 | 19.3 | 0.00 | 0.00 | 0.00 | 59 | 1021.9 |
| 20260506220020 | 20 | 320 | 11.3 | 20.9 | 0.00 | 0.00 | 0.00 | 60 | 1022.0 |
| 20260506215021 | 20 | 321 | 9.7 | 20.9 | 0.00 | 0.00 | 0.00 | 61 | 1021.9 |
| 20260506214020 | 20 | 317 | 8.0 | 20.9 | 0.00 | 0.00 | 0.00 | 61 | 1022.0 |
| 20260506213017 | 21 | 319 | 8.0 | 20.9 | 0.00 | 0.00 | 0.00 | 59 | 1022.1 |
| 20260506212029 | 21 | 312 | 8.0 | 16.1 | 0.00 | 0.00 | 0.00 | 59 | 1022.0 |
| 20260506211019 | 21 | 326 | 9.7 | 20.9 | 0.00 | 0.00 | 0.00 | 59 | 1022.1 |
| 20260506210019 | 21 | 318 | 8.0 | 17.7 | 0.00 | 0.00 | 0.00 | 58 | 1022.3 |
| 20260506205017 | 21 | 322 | 9.7 | 16.1 | 0.00 | 0.00 | 0.00 | 58 | 1022.4 |
| 20260506204018 | 21 | 328 | 6.4 | 17.7 | 0.00 | 0.00 | 0.00 | 58 | 1022.3 |
| 20260506203019 | 21 | 333 | 6.4 | 14.5 | 0.00 | 0.00 | 0.00 | 57 | 1022.5 |
| 20260506202016 | 21 | 324 | 6.4 | 14.5 | 0.00 | 0.00 | 0.00 | 56 | 1022.5 |
| 20260506201017 | 21 | 352 | 6.4 | 19.3 | 0.00 | 0.00 | 0.00 | 57 | 1022.7 |
| 20260506200020 | 20 | 300 | 3.2 | 6.4 | 0.00 | 0.00 | 0.00 | 57 | 1022.8 |
| 20260506195041 | 21 | 332 | 6.4 | 14.5 | 0.00 | 0.00 | 0.00 | 58 | 1023.0 |
| 20260506194018 | 20 | 350 | 6.4 | 12.9 | 0.00 | 0.00 | 0.00 | 59 | 1023.0 |
| 20260506193019 | 20 | 354 | 8.0 | 16.1 | 0.00 | 0.00 | 0.00 | 60 | 1023.2 |
| 20260506192020 | 19 | 339 | 6.4 | 12.9 | 0.00 | 0.00 | 0.00 | 61 | 1023.5 |
| 20260506191017 | 19 | 350 | 8.0 | 14.5 | 0.00 | 0.00 | 0.00 | 63 | 1023.4 |
| 20260506190019 | 18 | 329 | 8.0 | 14.5 | 0.00 | 0.00 | 0.00 | 62 | 1023.3 |
| 20260506185019 | 19 | 351 | 6.4 | 14.5 | 0.00 | 0.00 | 0.00 | 61 | 1023.4 |
| 20260506184016 | 20 | 346 | 6.4 | 14.5 | 0.00 | 0.00 | 0.00 | 60 | 1023.4 |
| 20260506183017 | 20 | 360 | 8.0 | 16.1 | 0.00 | 0.00 | 0.00 | 61 | 1023.5 |
| 20260506182018 | 19 | 3 | 6.4 | 12.9 | 0.00 | 0.00 | 0.00 | 63 | 1023.4 |
| 20260506181017 | 19 | 347 | 4.8 | 9.7 | 0.00 | 0.00 | 0.00 | 62 | 1023.3 |
| 20260506180038 | 18 | 11 | 4.8 | 8.0 | 0.00 | 0.00 | 0.00 | 63 | 1023.5 |
| 20260506175019 | 18 | 335 | 4.8 | 9.7 | 0.00 | 0.00 | 0.00 | 64 | 1023.5 |
| 20260506174020 | 18 | 315 | 3.2 | 9.7 | 0.00 | 0.00 | 0.00 | 66 | 1023.4 |
| 20260506173017 | 17 | 307 | 3.2 | 9.7 | 0.00 | 0.00 | 0.00 | 67 | 1023.6 |
| 20260506172016 | 17 | 287 | 1.6 | 8.0 | 0.00 | 0.00 | 0.00 | 68 | 1023.6 |
| 20260506171036 | 16 | 342 | 3.2 | 6.4 | 0.00 | 0.00 | 0.00 | 68 | 1023.7 |
| 20260506170017 | 16 | 265 | 3.2 | 6.4 | 0.00 | 0.00 | 0.00 | 69 | 1023.8 |
| 20260506165037 | 16 | 344 | 1.6 | 6.4 | 0.00 | 0.00 | 0.00 | 70 | 1023.6 |
| 20260506164041 | 16 | 340 | 3.2 | 8.0 | 0.00 | 0.00 | 0.00 | 70 | 1023.7 |
| 20260506163016 | 16 | 353 | 3.2 | 11.3 | 0.00 | 0.00 | 0.00 | 70 | 1023.6 |
| 20260506162017 | 16 | 320 | 3.2 | 6.4 | 0.00 | 0.00 | 0.00 | 71 | 1023.7 |
| 20260506161020 | 15 | 320 | 3.2 | 6.4 | 0.00 | 0.00 | 0.00 | 72 | 1023.7 |
| 20260506160019 | 15 | 260 | 0.0 | 6.4 | 0.00 | 0.00 | 0.00 | 72 | 1023.7 |
| 20260506155017 | 15 | 266 | 4.8 | 8.0 | 0.00 | 0.00 | 0.00 | 73 | 1023.7 |
| 20260506154024 | 15 | 322 | 3.2 | 8.0 | 0.00 | 0.00 | 0.00 | 74 | 1023.6 |
| 20260506153022 | 15 | 348 | 1.6 | 3.2 | 0.00 | 0.00 | 0.00 | 75 | 1023.6 |
| 20260506152019 | 14 | 260 | 1.6 | 4.8 | 0.00 | 0.00 | 0.00 | 75 | 1023.7 |
| 20260506151018 | 14 | 272 | 0.0 | 3.2 | 0.00 | 0.00 | 0.00 | 77 | 1023.6 |
| 20260506150021 | 14 | 255 | 1.6 | 6.4 | 0.00 | 0.00 | 0.00 | 77 | 1023.7 |
| 20260506145020 | 14 | 289 | 3.2 | 8.0 | 0.00 | 0.00 | 0.00 | 77 | 1023.5 |
| 20260506144019 | 14 | 272 | 1.6 | 6.4 | 0.00 | 0.00 | 0.00 | 79 | 1023.5 |
| 20260506143041 | 13 | 281 | 3.2 | 6.4 | 0.00 | 0.00 | 0.00 | 79 | 1023.6 |
| 20260506142022 | 13 | 267 | 3.2 | 6.4 | 0.00 | 0.00 | 0.00 | 79 | 1023.5 |
| 20260506141041 | 13 | 268 | 1.6 | 4.8 | 0.00 | 0.00 | 0.00 | 79 | 1023.3 |
| 20260506140016 | 13 | 296 | 1.6 | 4.8 | 0.00 | 0.00 | 0.00 | 79 | 1023.1 |
| 20260506135017 | 13 | 294 | 1.6 | 6.4 | 0.00 | 0.00 | 0.00 | 80 | 1023.1 |
| 20260506134018 | 13 | 300 | 3.2 | 4.8 | 0.00 | 0.00 | 0.00 | 80 | 1023.0 |
| 20260506133026 | 13 | 323 | 1.6 | 4.8 | 0.00 | 0.00 | 0.00 | 81 | 1022.8 |
| 20260506132017 | 13 | 308 | 3.2 | 6.4 | 0.00 | 0.00 | 0.00 | 80 | 1022.8 |
| 20260506131018 | 13 | 266 | 0.0 | 4.8 | 0.00 | 0.00 | 0.00 | 81 | 1022.7 |
| 20260506130019 | 13 | 186 | 0.0 | 3.2 | 0.00 | 0.00 | 0.00 | 81 | 1022.8 |
| 20260506125017 | 13 | 14 | 0.0 | 3.2 | 0.00 | 0.00 | 0.00 | 81 | 1022.7 |
| 20260506124018 | 13 | 213 | 1.6 | 4.8 | 0.00 | 0.00 | 0.00 | 81 | 1022.6 |
| 20260506123037 | 13 | 203 | 1.6 | 3.2 | 0.00 | 0.00 | 0.00 | 81 | 1022.7 |
| 20260506122026 | 13 | 208 | 0.0 | 3.2 | 0.00 | 0.00 | 0.00 | 80 | 1022.4 |
| 20260506121024 | 13 | 280 | 0.0 | 3.2 | 0.00 | 0.00 | 0.00 | 80 | 1022.5 |
| 20260506120018 | 13 | 285 | 0.0 | 3.2 | 0.00 | 0.00 | 0.00 | 80 | 1022.5 |
| 20260506115016 | 13 | 285 | 0.0 | 3.2 | 0.00 | 0.00 | 0.00 | 80 | 1022.3 |
| 20260506114017 | 13 | 345 | 0.0 | 3.2 | 0.00 | 0.00 | 0.00 | 80 | 1022.3 |
| 20260506113024 | 13 | 315 | 1.6 | 4.8 | 0.00 | 0.00 | 0.00 | 80 | 1022.1 |
| 20260506112015 | 13 | 258 | 0.0 | 3.2 | 0.00 | 0.00 | 0.00 | 80 | 1022.1 |
| 20260506111017 | 13 | 279 | 0.0 | 3.2 | 0.00 | 0.00 | 0.00 | 81 | 1022.1 |
| 20260506110044 | 13 | 146 | 0.0 | 3.2 | 0.00 | 0.00 | 0.00 | 81 | 1022.1 |
| 20260506105021 | 13 | 264 | 0.0 | 1.6 | 0.00 | 0.00 | 0.00 | 80 | 1022.1 |
| 20260506104018 | 13 | 0.0 | 1.6 | 0.00 | 0.00 | 0.00 | 80 | 1022.1 | |
| 20260506103017 | 13 | 229 | 0.0 | 3.2 | 0.00 | 0.00 | 0.00 | 80 | 1022.0 |
| 20260506102018 | 13 | 166 | 0.0 | 3.2 | 0.00 | 0.00 | 0.00 | 79 | 1021.8 |
| 20260506101015 | 13 | 255 | 0.0 | 3.2 | 0.00 | 0.00 | 0.00 | 79 | 1022.0 |
| 20260506100018 | 13 | 295 | 0.0 | 3.2 | 0.00 | 0.00 | 0.00 | 79 | 1021.9 |
| 20260506095029 | 13 | 238 | 0.0 | 1.6 | 0.00 | 0.03 | 0.00 | 79 | 1021.9 |
| 20260506094026 | 13 | 160 | 0.0 | 3.2 | 0.00 | 0.03 | 0.00 | 79 | 1021.9 |
| 20260506093019 | 13 | 311 | 0.0 | 3.2 | 0.00 | 0.03 | 0.00 | 79 | 1022.0 |
| 20260506092020 | 13 | 0.0 | 0.0 | 0.00 | 0.03 | 0.00 | 80 | 1021.9 | |
| 20260506091017 | 13 | 0.0 | 0.0 | 0.00 | 0.03 | 0.00 | 79 | 1021.8 | |
| 20260506090019 | 13 | 316 | 0.0 | 1.6 | 0.00 | 0.03 | 0.00 | 79 | 1021.8 |
| 20260506085019 | 13 | 0.0 | 0.0 | 0.00 | 0.08 | 0.00 | 79 | 1021.8 | |
| 20260506084017 | 14 | 245 | 0.0 | 1.6 | 0.00 | 0.10 | 0.00 | 78 | 1021.8 |
| 20260506083020 | 14 | 340 | 0.0 | 1.6 | 0.00 | 0.10 | 0.00 | 77 | 1022.0 |
| 20260506082017 | 14 | 252 | 0.0 | 3.2 | 0.00 | 0.10 | 0.00 | 77 | 1021.9 |
| 20260506081020 | 14 | 302 | 0.0 | 3.2 | 0.00 | 0.10 | 0.00 | 77 | 1022.0 |